sensor_id;sensor_type;location;lat;lon;timestamp;P1;durP1;ratioP1;P2;durP2;ratioP2
47804;SDS011;33568;45.286;9.900;2023-07-29T00:01:13;5.15;;;4.28;;
47804;SDS011;33568;45.286;9.900;2023-07-29T00:03:39;6.32;;;3.80;;
47804;SDS011;33568;45.286;9.900;2023-07-29T00:06:06;5.43;;;3.88;;
47804;SDS011;33568;45.286;9.900;2023-07-29T00:08:33;4.82;;;3.45;;
47804;SDS011;33568;45.286;9.900;2023-07-29T00:10:59;11.18;;;5.22;;
47804;SDS011;33568;45.286;9.900;2023-07-29T00:13:26;7.20;;;4.15;;
47804;SDS011;33568;45.286;9.900;2023-07-29T00:15:53;14.18;;;6.20;;
47804;SDS011;33568;45.286;9.900;2023-07-29T00:18:21;6.13;;;4.07;;
47804;SDS011;33568;45.286;9.900;2023-07-29T00:20:49;5.13;;;3.42;;
47804;SDS011;33568;45.286;9.900;2023-07-29T00:23:17;5.88;;;4.18;;
47804;SDS011;33568;45.286;9.900;2023-07-29T00:25:47;6.18;;;4.13;;
47804;SDS011;33568;45.286;9.900;2023-07-29T00:28:13;6.22;;;3.78;;
47804;SDS011;33568;45.286;9.900;2023-07-29T00:30:40;7.28;;;4.70;;
47804;SDS011;33568;45.286;9.900;2023-07-29T00:33:06;5.53;;;3.85;;
47804;SDS011;33568;45.286;9.900;2023-07-29T00:35:34;6.38;;;5.15;;
47804;SDS011;33568;45.286;9.900;2023-07-29T00:38:00;6.90;;;4.63;;
47804;SDS011;33568;45.286;9.900;2023-07-29T00:40:28;5.28;;;4.00;;
47804;SDS011;33568;45.286;9.900;2023-07-29T00:42:54;6.90;;;4.15;;
47804;SDS011;33568;45.286;9.900;2023-07-29T00:45:21;5.68;;;4.00;;
47804;SDS011;33568;45.286;9.900;2023-07-29T00:47:49;7.72;;;5.18;;
47804;SDS011;33568;45.286;9.900;2023-07-29T00:50:16;4.43;;;4.03;;
47804;SDS011;33568;45.286;9.900;2023-07-29T00:52:43;5.65;;;4.00;;
47804;SDS011;33568;45.286;9.900;2023-07-29T00:55:10;7.15;;;4.68;;
47804;SDS011;33568;45.286;9.900;2023-07-29T00:57:37;12.23;;;4.40;;
47804;SDS011;33568;45.286;9.900;2023-07-29T01:00:04;7.97;;;4.90;;
47804;SDS011;33568;45.286;9.900;2023-07-29T01:02:32;5.63;;;4.40;;
47804;SDS011;33568;45.286;9.900;2023-07-29T01:04:58;6.68;;;3.97;;
47804;SDS011;33568;45.286;9.900;2023-07-29T01:15:09;6.45;;;4.32;;
47804;SDS011;33568;45.286;9.900;2023-07-29T01:18:02;6.82;;;4.97;;
47804;SDS011;33568;45.286;9.900;2023-07-29T01:20:35;5.97;;;4.20;;
47804;SDS011;33568;45.286;9.900;2023-07-29T01:23:06;7.75;;;4.65;;
47804;SDS011;33568;45.286;9.900;2023-07-29T01:25:32;5.85;;;4.40;;
47804;SDS011;33568;45.286;9.900;2023-07-29T01:27:58;5.63;;;4.22;;
47804;SDS011;33568;45.286;9.900;2023-07-29T01:30:37;7.65;;;4.65;;
47804;SDS011;33568;45.286;9.900;2023-07-29T01:35:36;5.97;;;5.38;;
47804;SDS011;33568;45.286;9.900;2023-07-29T01:38:18;5.50;;;5.00;;
47804;SDS011;33568;45.286;9.900;2023-07-29T01:40:50;5.45;;;3.95;;
47804;SDS011;33568;45.286;9.900;2023-07-29T01:43:17;7.68;;;4.30;;
47804;SDS011;33568;45.286;9.900;2023-07-29T01:45:49;5.78;;;4.35;;
47804;SDS011;33568;45.286;9.900;2023-07-29T01:48:16;6.32;;;5.15;;
47804;SDS011;33568;45.286;9.900;2023-07-29T01:50:43;7.40;;;4.57;;
47804;SDS011;33568;45.286;9.900;2023-07-29T01:53:09;5.25;;;4.15;;
47804;SDS011;33568;45.286;9.900;2023-07-29T01:55:37;5.95;;;4.30;;
47804;SDS011;33568;45.286;9.900;2023-07-29T01:58:04;7.97;;;4.85;;
47804;SDS011;33568;45.286;9.900;2023-07-29T02:00:33;6.85;;;4.13;;
47804;SDS011;33568;45.286;9.900;2023-07-29T02:03:00;6.28;;;4.70;;
47804;SDS011;33568;45.286;9.900;2023-07-29T02:05:26;5.97;;;4.22;;
47804;SDS011;33568;45.286;9.900;2023-07-29T02:07:53;6.15;;;4.53;;
47804;SDS011;33568;45.286;9.900;2023-07-29T02:10:20;7.50;;;5.47;;
47804;SDS011;33568;45.286;9.900;2023-07-29T02:12:46;7.93;;;6.75;;
47804;SDS011;33568;45.286;9.900;2023-07-29T02:15:13;8.98;;;5.32;;
47804;SDS011;33568;45.286;9.900;2023-07-29T02:17:42;7.63;;;5.68;;
47804;SDS011;33568;45.286;9.900;2023-07-29T02:20:09;7.57;;;4.55;;
47804;SDS011;33568;45.286;9.900;2023-07-29T02:22:37;6.63;;;4.80;;
47804;SDS011;33568;45.286;9.900;2023-07-29T02:25:03;15.35;;;6.47;;
47804;SDS011;33568;45.286;9.900;2023-07-29T02:27:30;8.38;;;5.45;;
47804;SDS011;33568;45.286;9.900;2023-07-29T02:29:56;8.30;;;5.18;;
47804;SDS011;33568;45.286;9.900;2023-07-29T02:32:23;8.85;;;5.63;;
47804;SDS011;33568;45.286;9.900;2023-07-29T02:34:50;6.07;;;4.88;;
47804;SDS011;33568;45.286;9.900;2023-07-29T02:37:16;7.38;;;5.20;;
47804;SDS011;33568;45.286;9.900;2023-07-29T02:39:43;5.18;;;4.38;;
47804;SDS011;33568;45.286;9.900;2023-07-29T02:42:10;5.57;;;3.95;;
47804;SDS011;33568;45.286;9.900;2023-07-29T02:44:37;7.28;;;4.85;;
47804;SDS011;33568;45.286;9.900;2023-07-29T02:47:03;6.80;;;4.13;;
47804;SDS011;33568;45.286;9.900;2023-07-29T02:49:30;6.45;;;5.22;;
47804;SDS011;33568;45.286;9.900;2023-07-29T02:51:56;11.15;;;5.85;;
47804;SDS011;33568;45.286;9.900;2023-07-29T02:54:23;6.85;;;4.35;;
47804;SDS011;33568;45.286;9.900;2023-07-29T02:56:50;12.52;;;5.38;;
47804;SDS011;33568;45.286;9.900;2023-07-29T02:59:16;10.68;;;4.43;;
47804;SDS011;33568;45.286;9.900;2023-07-29T03:01:43;7.75;;;5.80;;
47804;SDS011;33568;45.286;9.900;2023-07-29T03:04:09;6.72;;;5.00;;
47804;SDS011;33568;45.286;9.900;2023-07-29T03:06:39;11.73;;;5.68;;
47804;SDS011;33568;45.286;9.900;2023-07-29T03:09:05;12.93;;;7.20;;
47804;SDS011;33568;45.286;9.900;2023-07-29T03:11:32;9.63;;;6.22;;
47804;SDS011;33568;45.286;9.900;2023-07-29T03:13:58;10.40;;;8.27;;
47804;SDS011;33568;45.286;9.900;2023-07-29T03:16:27;8.95;;;5.60;;
47804;SDS011;33568;45.286;9.900;2023-07-29T03:18:56;8.18;;;5.80;;
47804;SDS011;33568;45.286;9.900;2023-07-29T03:21:23;10.65;;;6.10;;
47804;SDS011;33568;45.286;9.900;2023-07-29T03:23:50;10.23;;;6.00;;
47804;SDS011;33568;45.286;9.900;2023-07-29T03:26:16;8.32;;;5.57;;
47804;SDS011;33568;45.286;9.900;2023-07-29T03:28:43;10.30;;;5.57;;
47804;SDS011;33568;45.286;9.900;2023-07-29T03:31:10;10.07;;;5.63;;
47804;SDS011;33568;45.286;9.900;2023-07-29T03:33:37;10.15;;;5.47;;
47804;SDS011;33568;45.286;9.900;2023-07-29T03:36:04;10.00;;;5.45;;
47804;SDS011;33568;45.286;9.900;2023-07-29T03:38:30;10.68;;;5.63;;
47804;SDS011;33568;45.286;9.900;2023-07-29T03:40:58;8.82;;;5.70;;
47804;SDS011;33568;45.286;9.900;2023-07-29T03:43:25;11.18;;;5.43;;
47804;SDS011;33568;45.286;9.900;2023-07-29T03:45:54;11.27;;;4.90;;
47804;SDS011;33568;45.286;9.900;2023-07-29T03:48:21;10.13;;;5.03;;
47804;SDS011;33568;45.286;9.900;2023-07-29T03:50:47;18.20;;;7.40;;
47804;SDS011;33568;45.286;9.900;2023-07-29T03:53:13;16.08;;;6.68;;
47804;SDS011;33568;45.286;9.900;2023-07-29T03:55:40;14.02;;;7.05;;
47804;SDS011;33568;45.286;9.900;2023-07-29T03:58:07;7.68;;;5.90;;
47804;SDS011;33568;45.286;9.900;2023-07-29T04:00:33;8.95;;;5.85;;
47804;SDS011;33568;45.286;9.900;2023-07-29T04:02:59;9.60;;;5.93;;
47804;SDS011;33568;45.286;9.900;2023-07-29T04:05:26;9.10;;;4.95;;
47804;SDS011;33568;45.286;9.900;2023-07-29T04:07:53;8.88;;;4.97;;
47804;SDS011;33568;45.286;9.900;2023-07-29T04:10:21;10.70;;;6.35;;
47804;SDS011;33568;45.286;9.900;2023-07-29T04:12:48;8.18;;;5.82;;
47804;SDS011;33568;45.286;9.900;2023-07-29T04:15:15;10.18;;;6.22;;
47804;SDS011;33568;45.286;9.900;2023-07-29T04:17:41;8.85;;;5.13;;
47804;SDS011;33568;45.286;9.900;2023-07-29T04:20:08;10.77;;;5.32;;
47804;SDS011;33568;45.286;9.900;2023-07-29T04:22:35;11.43;;;6.70;;
47804;SDS011;33568;45.286;9.900;2023-07-29T04:25:01;13.35;;;7.28;;
47804;SDS011;33568;45.286;9.900;2023-07-29T04:27:30;10.60;;;5.53;;
47804;SDS011;33568;45.286;9.900;2023-07-29T04:29:57;14.30;;;8.18;;
47804;SDS011;33568;45.286;9.900;2023-07-29T04:32:23;21.17;;;9.85;;
47804;SDS011;33568;45.286;9.900;2023-07-29T04:34:50;14.18;;;5.53;;
47804;SDS011;33568;45.286;9.900;2023-07-29T04:37:16;28.70;;;9.88;;
47804;SDS011;33568;45.286;9.900;2023-07-29T04:39:42;7.13;;;4.60;;
47804;SDS011;33568;45.286;9.900;2023-07-29T04:42:09;18.38;;;6.70;;
47804;SDS011;33568;45.286;9.900;2023-07-29T04:44:35;13.20;;;7.90;;
47804;SDS011;33568;45.286;9.900;2023-07-29T04:47:02;14.68;;;7.72;;
47804;SDS011;33568;45.286;9.900;2023-07-29T04:49:28;29.00;;;10.50;;
47804;SDS011;33568;45.286;9.900;2023-07-29T04:51:55;24.23;;;9.20;;
47804;SDS011;33568;45.286;9.900;2023-07-29T04:54:21;8.40;;;4.38;;
47804;SDS011;33568;45.286;9.900;2023-07-29T04:56:48;12.10;;;6.50;;
47804;SDS011;33568;45.286;9.900;2023-07-29T04:59:17;12.00;;;6.13;;
47804;SDS011;33568;45.286;9.900;2023-07-29T05:01:43;17.50;;;6.07;;
47804;SDS011;33568;45.286;9.900;2023-07-29T05:04:09;11.93;;;5.28;;
47804;SDS011;33568;45.286;9.900;2023-07-29T05:06:36;15.57;;;5.50;;
47804;SDS011;33568;45.286;9.900;2023-07-29T05:09:15;17.95;;;6.70;;
47804;SDS011;33568;45.286;9.900;2023-07-29T05:11:43;18.13;;;5.88;;
47804;SDS011;33568;45.286;9.900;2023-07-29T05:14:12;20.20;;;7.32;;
47804;SDS011;33568;45.286;9.900;2023-07-29T05:16:39;21.13;;;6.82;;
47804;SDS011;33568;45.286;9.900;2023-07-29T05:19:05;17.92;;;6.30;;
47804;SDS011;33568;45.286;9.900;2023-07-29T05:21:32;15.43;;;5.07;;
47804;SDS011;33568;45.286;9.900;2023-07-29T05:23:59;22.10;;;6.03;;
47804;SDS011;33568;45.286;9.900;2023-07-29T05:26:25;19.00;;;5.43;;
47804;SDS011;33568;45.286;9.900;2023-07-29T05:28:52;13.65;;;6.57;;
47804;SDS011;33568;45.286;9.900;2023-07-29T05:31:18;14.65;;;6.70;;
47804;SDS011;33568;45.286;9.900;2023-07-29T05:33:45;24.45;;;6.85;;
47804;SDS011;33568;45.286;9.900;2023-07-29T05:36:12;11.80;;;5.35;;
47804;SDS011;33568;45.286;9.900;2023-07-29T05:38:38;11.93;;;5.43;;
47804;SDS011;33568;45.286;9.900;2023-07-29T05:41:05;17.00;;;7.43;;
47804;SDS011;33568;45.286;9.900;2023-07-29T05:43:31;20.02;;;9.20;;
47804;SDS011;33568;45.286;9.900;2023-07-29T05:45:58;14.18;;;6.28;;
47804;SDS011;33568;45.286;9.900;2023-07-29T05:48:24;10.75;;;5.30;;
47804;SDS011;33568;45.286;9.900;2023-07-29T05:50:50;13.18;;;5.50;;
47804;SDS011;33568;45.286;9.900;2023-07-29T05:53:17;12.38;;;5.97;;
47804;SDS011;33568;45.286;9.900;2023-07-29T05:55:43;15.25;;;7.13;;
47804;SDS011;33568;45.286;9.900;2023-07-29T05:58:10;11.27;;;6.05;;
47804;SDS011;33568;45.286;9.900;2023-07-29T06:00:36;10.25;;;6.25;;
47804;SDS011;33568;45.286;9.900;2023-07-29T06:03:03;12.43;;;5.95;;
47804;SDS011;33568;45.286;9.900;2023-07-29T06:05:29;12.40;;;5.53;;
47804;SDS011;33568;45.286;9.900;2023-07-29T06:07:56;13.85;;;8.35;;
47804;SDS011;33568;45.286;9.900;2023-07-29T06:10:22;15.20;;;5.97;;
47804;SDS011;33568;45.286;9.900;2023-07-29T06:12:49;12.15;;;5.65;;
47804;SDS011;33568;45.286;9.900;2023-07-29T06:15:15;11.77;;;7.28;;
47804;SDS011;33568;45.286;9.900;2023-07-29T06:17:42;8.75;;;5.25;;
47804;SDS011;33568;45.286;9.900;2023-07-29T06:20:09;12.90;;;5.00;;
47804;SDS011;33568;45.286;9.900;2023-07-29T06:22:36;9.68;;;4.10;;
47804;SDS011;33568;45.286;9.900;2023-07-29T06:25:03;11.68;;;4.68;;
47804;SDS011;33568;45.286;9.900;2023-07-29T06:27:30;23.42;;;11.55;;
47804;SDS011;33568;45.286;9.900;2023-07-29T06:29:56;9.82;;;6.20;;
47804;SDS011;33568;45.286;9.900;2023-07-29T06:32:23;22.08;;;11.35;;
47804;SDS011;33568;45.286;9.900;2023-07-29T06:34:49;25.20;;;11.23;;
47804;SDS011;33568;45.286;9.900;2023-07-29T06:37:17;14.07;;;8.23;;
47804;SDS011;33568;45.286;9.900;2023-07-29T06:39:44;17.40;;;8.82;;
47804;SDS011;33568;45.286;9.900;2023-07-29T06:42:10;18.38;;;9.40;;
47804;SDS011;33568;45.286;9.900;2023-07-29T06:44:36;13.10;;;6.72;;
47804;SDS011;33568;45.286;9.900;2023-07-29T06:47:03;14.00;;;6.10;;
47804;SDS011;33568;45.286;9.900;2023-07-29T06:49:30;8.02;;;4.88;;
47804;SDS011;33568;45.286;9.900;2023-07-29T06:51:56;14.05;;;9.38;;
47804;SDS011;33568;45.286;9.900;2023-07-29T06:54:25;27.10;;;9.52;;
47804;SDS011;33568;45.286;9.900;2023-07-29T06:56:52;17.58;;;8.57;;
47804;SDS011;33568;45.286;9.900;2023-07-29T06:59:18;15.40;;;8.18;;
47804;SDS011;33568;45.286;9.900;2023-07-29T07:01:45;12.20;;;8.60;;
47804;SDS011;33568;45.286;9.900;2023-07-29T07:04:12;12.60;;;9.55;;
47804;SDS011;33568;45.286;9.900;2023-07-29T07:06:39;17.58;;;10.77;;
47804;SDS011;33568;45.286;9.900;2023-07-29T07:09:05;10.60;;;6.75;;
47804;SDS011;33568;45.286;9.900;2023-07-29T07:11:32;17.05;;;9.93;;
47804;SDS011;33568;45.286;9.900;2023-07-29T07:13:58;14.43;;;8.60;;
47804;SDS011;33568;45.286;9.900;2023-07-29T07:16:25;13.43;;;7.15;;
47804;SDS011;33568;45.286;9.900;2023-07-29T07:18:51;11.23;;;7.10;;
47804;SDS011;33568;45.286;9.900;2023-07-29T07:21:17;17.88;;;8.75;;
47804;SDS011;33568;45.286;9.900;2023-07-29T07:23:44;14.65;;;9.32;;
47804;SDS011;33568;45.286;9.900;2023-07-29T07:26:11;11.63;;;6.70;;
47804;SDS011;33568;45.286;9.900;2023-07-29T07:28:37;10.10;;;6.55;;
47804;SDS011;33568;45.286;9.900;2023-07-29T07:31:04;10.82;;;6.28;;
47804;SDS011;33568;45.286;9.900;2023-07-29T07:33:31;6.80;;;5.57;;
47804;SDS011;33568;45.286;9.900;2023-07-29T07:35:57;10.00;;;7.28;;
47804;SDS011;33568;45.286;9.900;2023-07-29T07:38:24;8.45;;;6.28;;
47804;SDS011;33568;45.286;9.900;2023-07-29T07:40:55;9.35;;;6.13;;
47804;SDS011;33568;45.286;9.900;2023-07-29T07:43:23;12.05;;;5.78;;
47804;SDS011;33568;45.286;9.900;2023-07-29T07:45:50;10.60;;;5.68;;
47804;SDS011;33568;45.286;9.900;2023-07-29T07:48:17;10.40;;;5.70;;
47804;SDS011;33568;45.286;9.900;2023-07-29T07:50:45;10.57;;;6.07;;
47804;SDS011;33568;45.286;9.900;2023-07-29T07:53:12;13.32;;;5.43;;
47804;SDS011;33568;45.286;9.900;2023-07-29T07:55:38;10.70;;;4.93;;
47804;SDS011;33568;45.286;9.900;2023-07-29T07:58:05;16.55;;;6.50;;
47804;SDS011;33568;45.286;9.900;2023-07-29T08:00:31;14.63;;;6.93;;
47804;SDS011;33568;45.286;9.900;2023-07-29T08:02:57;19.05;;;6.20;;
47804;SDS011;33568;45.286;9.900;2023-07-29T08:05:24;8.70;;;5.72;;
47804;SDS011;33568;45.286;9.900;2023-07-29T08:07:50;10.50;;;6.80;;
47804;SDS011;33568;45.286;9.900;2023-07-29T08:10:17;11.52;;;6.65;;
47804;SDS011;33568;45.286;9.900;2023-07-29T08:12:43;9.18;;;5.25;;
47804;SDS011;33568;45.286;9.900;2023-07-29T08:15:10;10.05;;;5.30;;
47804;SDS011;33568;45.286;9.900;2023-07-29T08:17:36;10.88;;;6.40;;
47804;SDS011;33568;45.286;9.900;2023-07-29T08:20:02;11.70;;;6.72;;
47804;SDS011;33568;45.286;9.900;2023-07-29T08:22:29;14.98;;;6.95;;
47804;SDS011;33568;45.286;9.900;2023-07-29T08:24:55;12.18;;;7.85;;
47804;SDS011;33568;45.286;9.900;2023-07-29T08:27:22;9.85;;;6.07;;
47804;SDS011;33568;45.286;9.900;2023-07-29T08:29:48;10.75;;;6.78;;
47804;SDS011;33568;45.286;9.900;2023-07-29T08:32:15;12.15;;;7.45;;
47804;SDS011;33568;45.286;9.900;2023-07-29T08:34:41;15.05;;;7.10;;
47804;SDS011;33568;45.286;9.900;2023-07-29T08:37:08;11.75;;;6.07;;
47804;SDS011;33568;45.286;9.900;2023-07-29T08:39:34;8.05;;;5.28;;
47804;SDS011;33568;45.286;9.900;2023-07-29T08:42:04;8.25;;;4.95;;
47804;SDS011;33568;45.286;9.900;2023-07-29T08:44:40;16.38;;;5.95;;
47804;SDS011;33568;45.286;9.900;2023-07-29T08:47:07;10.23;;;5.88;;
47804;SDS011;33568;45.286;9.900;2023-07-29T08:49:34;16.40;;;6.10;;
47804;SDS011;33568;45.286;9.900;2023-07-29T08:52:02;8.93;;;5.38;;
47804;SDS011;33568;45.286;9.900;2023-07-29T08:54:30;14.32;;;5.95;;
47804;SDS011;33568;45.286;9.900;2023-07-29T08:56:57;8.13;;;5.47;;
47804;SDS011;33568;45.286;9.900;2023-07-29T08:59:24;11.20;;;5.50;;
47804;SDS011;33568;45.286;9.900;2023-07-29T09:01:52;8.38;;;5.30;;
47804;SDS011;33568;45.286;9.900;2023-07-29T09:04:22;9.50;;;6.10;;
47804;SDS011;33568;45.286;9.900;2023-07-29T09:06:51;9.27;;;4.40;;
47804;SDS011;33568;45.286;9.900;2023-07-29T09:09:18;8.68;;;6.53;;
47804;SDS011;33568;45.286;9.900;2023-07-29T09:11:44;6.65;;;3.75;;
47804;SDS011;33568;45.286;9.900;2023-07-29T09:14:10;6.25;;;3.55;;
47804;SDS011;33568;45.286;9.900;2023-07-29T09:16:39;6.38;;;3.40;;
47804;SDS011;33568;45.286;9.900;2023-07-29T09:19:05;13.55;;;6.43;;
47804;SDS011;33568;45.286;9.900;2023-07-29T09:21:32;8.05;;;3.78;;
47804;SDS011;33568;45.286;9.900;2023-07-29T09:24:03;5.82;;;3.65;;
47804;SDS011;33568;45.286;9.900;2023-07-29T09:26:30;10.55;;;5.85;;
47804;SDS011;33568;45.286;9.900;2023-07-29T09:28:57;11.23;;;5.72;;
47804;SDS011;33568;45.286;9.900;2023-07-29T09:31:25;7.63;;;3.72;;
47804;SDS011;33568;45.286;9.900;2023-07-29T09:33:57;10.63;;;5.20;;
47804;SDS011;33568;45.286;9.900;2023-07-29T09:36:24;11.13;;;4.20;;
47804;SDS011;33568;45.286;9.900;2023-07-29T09:38:52;6.75;;;4.05;;
47804;SDS011;33568;45.286;9.900;2023-07-29T09:41:29;8.40;;;4.07;;
47804;SDS011;33568;45.286;9.900;2023-07-29T09:43:59;7.95;;;5.13;;
47804;SDS011;33568;45.286;9.900;2023-07-29T09:46:34;8.27;;;3.80;;
47804;SDS011;33568;45.286;9.900;2023-07-29T09:49:03;10.93;;;5.28;;
47804;SDS011;33568;45.286;9.900;2023-07-29T09:51:30;6.10;;;4.40;;
47804;SDS011;33568;45.286;9.900;2023-07-29T09:53:56;6.68;;;3.42;;
47804;SDS011;33568;45.286;9.900;2023-07-29T09:56:25;5.78;;;3.05;;
47804;SDS011;33568;45.286;9.900;2023-07-29T09:58:52;6.80;;;3.95;;
47804;SDS011;33568;45.286;9.900;2023-07-29T10:01:23;7.30;;;3.85;;
47804;SDS011;33568;45.286;9.900;2023-07-29T10:03:50;4.40;;;2.70;;
47804;SDS011;33568;45.286;9.900;2023-07-29T10:06:17;10.23;;;3.85;;
47804;SDS011;33568;45.286;9.900;2023-07-29T10:08:44;6.60;;;4.63;;
47804;SDS011;33568;45.286;9.900;2023-07-29T10:11:11;5.90;;;3.35;;
47804;SDS011;33568;45.286;9.900;2023-07-29T10:13:38;8.73;;;4.22;;
47804;SDS011;33568;45.286;9.900;2023-07-29T10:16:07;8.82;;;4.30;;
47804;SDS011;33568;45.286;9.900;2023-07-29T10:18:35;9.30;;;4.57;;
47804;SDS011;33568;45.286;9.900;2023-07-29T10:21:02;7.55;;;3.40;;
47804;SDS011;33568;45.286;9.900;2023-07-29T10:23:32;14.13;;;3.78;;
47804;SDS011;33568;45.286;9.900;2023-07-29T10:26:04;5.30;;;2.90;;
47804;SDS011;33568;45.286;9.900;2023-07-29T10:28:36;3.63;;;2.80;;
47804;SDS011;33568;45.286;9.900;2023-07-29T10:31:05;5.88;;;3.15;;
47804;SDS011;33568;45.286;9.900;2023-07-29T10:33:32;5.05;;;3.03;;
47804;SDS011;33568;45.286;9.900;2023-07-29T10:36:00;6.95;;;3.58;;
47804;SDS011;33568;45.286;9.900;2023-07-29T10:38:28;5.60;;;3.00;;
47804;SDS011;33568;45.286;9.900;2023-07-29T10:40:57;8.00;;;4.47;;
47804;SDS011;33568;45.286;9.900;2023-07-29T10:45:56;7.13;;;3.80;;
47804;SDS011;33568;45.286;9.900;2023-07-29T10:54:01;6.47;;;3.88;;
47804;SDS011;33568;45.286;9.900;2023-07-29T10:56:42;5.22;;;3.25;;
47804;SDS011;33568;45.286;9.900;2023-07-29T11:01:45;5.68;;;3.53;;
47804;SDS011;33568;45.286;9.900;2023-07-29T11:12:32;5.03;;;3.05;;
47804;SDS011;33568;45.286;9.900;2023-07-29T11:15:17;7.05;;;3.08;;
47804;SDS011;33568;45.286;9.900;2023-07-29T11:20:24;6.57;;;3.60;;
47804;SDS011;33568;45.286;9.900;2023-07-29T11:22:56;6.63;;;3.63;;
47804;SDS011;33568;45.286;9.900;2023-07-29T11:25:25;4.32;;;2.88;;
47804;SDS011;33568;45.286;9.900;2023-07-29T11:27:53;8.40;;;3.67;;
47804;SDS011;33568;45.286;9.900;2023-07-29T11:30:20;6.45;;;3.25;;
47804;SDS011;33568;45.286;9.900;2023-07-29T11:32:48;5.95;;;3.53;;
47804;SDS011;33568;45.286;9.900;2023-07-29T11:35:16;4.82;;;2.97;;
47804;SDS011;33568;45.286;9.900;2023-07-29T11:37:44;6.63;;;2.97;;
47804;SDS011;33568;45.286;9.900;2023-07-29T11:40:15;8.00;;;2.80;;
47804;SDS011;33568;45.286;9.900;2023-07-29T11:42:42;5.32;;;2.78;;
47804;SDS011;33568;45.286;9.900;2023-07-29T11:45:09;6.20;;;3.38;;
47804;SDS011;33568;45.286;9.900;2023-07-29T11:47:36;7.55;;;3.13;;
47804;SDS011;33568;45.286;9.900;2023-07-29T11:50:07;8.02;;;2.92;;
47804;SDS011;33568;45.286;9.900;2023-07-29T11:52:40;9.80;;;3.45;;
47804;SDS011;33568;45.286;9.900;2023-07-29T11:55:11;4.53;;;2.47;;
47804;SDS011;33568;45.286;9.900;2023-07-29T11:57:38;8.80;;;3.25;;
47804;SDS011;33568;45.286;9.900;2023-07-29T12:00:06;7.03;;;3.08;;
47804;SDS011;33568;45.286;9.900;2023-07-29T12:02:36;6.32;;;2.50;;
47804;SDS011;33568;45.286;9.900;2023-07-29T12:05:08;6.22;;;2.92;;
47804;SDS011;33568;45.286;9.900;2023-07-29T12:07:35;5.63;;;3.10;;
47804;SDS011;33568;45.286;9.900;2023-07-29T12:10:05;4.32;;;2.88;;
47804;SDS011;33568;45.286;9.900;2023-07-29T12:12:32;5.45;;;3.13;;
47804;SDS011;33568;45.286;9.900;2023-07-29T12:14:59;5.45;;;3.13;;
47804;SDS011;33568;45.286;9.900;2023-07-29T12:17:26;9.10;;;3.42;;
47804;SDS011;33568;45.286;9.900;2023-07-29T12:19:54;9.45;;;3.00;;
47804;SDS011;33568;45.286;9.900;2023-07-29T12:22:21;6.53;;;3.35;;
47804;SDS011;33568;45.286;9.900;2023-07-29T12:24:48;10.43;;;3.83;;
47804;SDS011;33568;45.286;9.900;2023-07-29T12:27:19;10.32;;;3.35;;
47804;SDS011;33568;45.286;9.900;2023-07-29T12:29:48;7.47;;;3.40;;
47804;SDS011;33568;45.286;9.900;2023-07-29T12:32:18;5.68;;;3.00;;
47804;SDS011;33568;45.286;9.900;2023-07-29T12:34:45;6.93;;;3.15;;
47804;SDS011;33568;45.286;9.900;2023-07-29T12:37:11;6.85;;;3.00;;
47804;SDS011;33568;45.286;9.900;2023-07-29T12:39:39;4.45;;;2.78;;
47804;SDS011;33568;45.286;9.900;2023-07-29T12:42:07;5.57;;;3.03;;
47804;SDS011;33568;45.286;9.900;2023-07-29T12:44:34;7.10;;;3.38;;
47804;SDS011;33568;45.286;9.900;2023-07-29T12:47:02;8.13;;;2.90;;
47804;SDS011;33568;45.286;9.900;2023-07-29T12:49:31;6.55;;;3.38;;
47804;SDS011;33568;45.286;9.900;2023-07-29T12:51:57;7.85;;;3.10;;
47804;SDS011;33568;45.286;9.900;2023-07-29T12:54:24;6.13;;;3.38;;
47804;SDS011;33568;45.286;9.900;2023-07-29T12:56:51;5.68;;;2.85;;
47804;SDS011;33568;45.286;9.900;2023-07-29T12:59:18;15.25;;;3.20;;
47804;SDS011;33568;45.286;9.900;2023-07-29T13:01:44;8.13;;;3.42;;
47804;SDS011;33568;45.286;9.900;2023-07-29T13:04:11;9.57;;;3.33;;
47804;SDS011;33568;45.286;9.900;2023-07-29T13:06:37;4.88;;;3.13;;
47804;SDS011;33568;45.286;9.900;2023-07-29T13:09:04;4.95;;;2.70;;
47804;SDS011;33568;45.286;9.900;2023-07-29T13:11:31;6.60;;;3.40;;
47804;SDS011;33568;45.286;9.900;2023-07-29T13:14:00;7.35;;;2.95;;
47804;SDS011;33568;45.286;9.900;2023-07-29T13:16:29;5.63;;;2.90;;
47804;SDS011;33568;45.286;9.900;2023-07-29T13:18:57;8.38;;;3.17;;
47804;SDS011;33568;45.286;9.900;2023-07-29T13:21:23;8.35;;;2.88;;
47804;SDS011;33568;45.286;9.900;2023-07-29T13:23:51;7.68;;;3.55;;
47804;SDS011;33568;45.286;9.900;2023-07-29T13:26:18;5.65;;;2.58;;
47804;SDS011;33568;45.286;9.900;2023-07-29T13:28:44;5.80;;;2.97;;
47804;SDS011;33568;45.286;9.900;2023-07-29T13:31:11;5.28;;;3.00;;
47804;SDS011;33568;45.286;9.900;2023-07-29T13:33:38;6.65;;;3.00;;
47804;SDS011;33568;45.286;9.900;2023-07-29T13:36:05;4.38;;;2.70;;
47804;SDS011;33568;45.286;9.900;2023-07-29T13:38:31;4.65;;;3.08;;
47804;SDS011;33568;45.286;9.900;2023-07-29T13:40:58;3.75;;;2.55;;
47804;SDS011;33568;45.286;9.900;2023-07-29T13:43:24;4.50;;;2.72;;
47804;SDS011;33568;45.286;9.900;2023-07-29T13:45:51;7.22;;;2.97;;
47804;SDS011;33568;45.286;9.900;2023-07-29T13:48:18;7.85;;;2.75;;
47804;SDS011;33568;45.286;9.900;2023-07-29T13:50:45;12.45;;;3.38;;
47804;SDS011;33568;45.286;9.900;2023-07-29T13:53:12;7.60;;;3.40;;
47804;SDS011;33568;45.286;9.900;2023-07-29T13:55:38;5.35;;;3.05;;
47804;SDS011;33568;45.286;9.900;2023-07-29T13:58:05;7.10;;;2.78;;
47804;SDS011;33568;45.286;9.900;2023-07-29T14:00:31;5.93;;;3.42;;
47804;SDS011;33568;45.286;9.900;2023-07-29T14:02:57;8.13;;;3.58;;
47804;SDS011;33568;45.286;9.900;2023-07-29T14:05:24;6.28;;;3.00;;
47804;SDS011;33568;45.286;9.900;2023-07-29T14:07:50;9.43;;;3.78;;
47804;SDS011;33568;45.286;9.900;2023-07-29T14:10:17;11.27;;;3.47;;
47804;SDS011;33568;45.286;9.900;2023-07-29T14:12:43;10.30;;;3.20;;
47804;SDS011;33568;45.286;9.900;2023-07-29T14:15:10;91.03;;;10.10;;
47804;SDS011;33568;45.286;9.900;2023-07-29T14:17:36;8.60;;;3.30;;
47804;SDS011;33568;45.286;9.900;2023-07-29T14:20:03;10.85;;;3.10;;
47804;SDS011;33568;45.286;9.900;2023-07-29T14:22:30;8.93;;;3.08;;
47804;SDS011;33568;45.286;9.900;2023-07-29T14:24:57;151.93;;;10.85;;
47804;SDS011;33568;45.286;9.900;2023-07-29T14:27:23;32.42;;;4.65;;
47804;SDS011;33568;45.286;9.900;2023-07-29T14:29:49;39.58;;;5.72;;
47804;SDS011;33568;45.286;9.900;2023-07-29T14:32:16;11.13;;;3.55;;
47804;SDS011;33568;45.286;9.900;2023-07-29T14:34:43;31.50;;;4.97;;
47804;SDS011;33568;45.286;9.900;2023-07-29T14:37:09;12.05;;;3.20;;
47804;SDS011;33568;45.286;9.900;2023-07-29T14:39:36;7.55;;;3.20;;
47804;SDS011;33568;45.286;9.900;2023-07-29T14:42:02;8.32;;;3.50;;
47804;SDS011;33568;45.286;9.900;2023-07-29T14:44:29;6.72;;;3.63;;
47804;SDS011;33568;45.286;9.900;2023-07-29T14:46:55;5.05;;;3.40;;
47804;SDS011;33568;45.286;9.900;2023-07-29T14:49:22;11.13;;;3.90;;
47804;SDS011;33568;45.286;9.900;2023-07-29T14:51:48;8.15;;;3.17;;
47804;SDS011;33568;45.286;9.900;2023-07-29T14:54:15;6.38;;;3.75;;
47804;SDS011;33568;45.286;9.900;2023-07-29T14:56:41;11.23;;;3.65;;
47804;SDS011;33568;45.286;9.900;2023-07-29T14:59:08;6.20;;;3.35;;
47804;SDS011;33568;45.286;9.900;2023-07-29T15:01:34;12.68;;;3.35;;
47804;SDS011;33568;45.286;9.900;2023-07-29T15:04:01;11.27;;;3.47;;
47804;SDS011;33568;45.286;9.900;2023-07-29T15:06:27;8.20;;;2.80;;
47804;SDS011;33568;45.286;9.900;2023-07-29T15:08:54;6.65;;;2.90;;
47804;SDS011;33568;45.286;9.900;2023-07-29T15:11:20;10.43;;;3.25;;
47804;SDS011;33568;45.286;9.900;2023-07-29T15:13:47;7.35;;;3.05;;